x

Portland 12 Nm Southeast Of Portland,me (44007) Wave Buoy

6:50 - Sat 1st Oct 2016 All times are EDT. -4 hours from GMT.

  • Sig Wave height 3.9ft
  • Swell Direction
  • Peak Period 8s
  • Average Period 5s
  • Wind
    16mph, 18mph gusts
  • Sea Temp 58°f
  • Aire Temp 55°f
  • Sea Pressure 1028.3mb
  • Portland 12 Nm Southeast Of Portland,me
  • Portland 12 Nm Southeast Of Portland,me

More Historic Weather Station data

Upgrade to MSW Pro to gain access to the past 30 days of data for over 8000 Wavebouys and Weather Stations around the globe.

Join Pro

Comparision Forecast

View Surf forecast
   
sáb 10/01 6:50 4ft 8s 5s 16 18 mph 1028.3mb 58f 55f
5:50 3.5ft 8s 5s 16 18 mph 1028.1mb 58f 55f
4:50 3.5ft 8s 5s 16 18 mph 1028.1mb 58f 55f
3:50 4ft 9s 5s 13 16 mph 1028.5mb 59f 55f
2:50 3.5ft 6s 5s 13 16 mph 1028.8mb 59f 55f
1:50 4ft 9s 5s 13 16 mph 1029.1mb 59f 55f
12:50 4ft 9s 5s 13 16 mph 1029.4mb 59f 55f
vie 09/30 11:50 4.5ft 10s 5s 13 16 mph 1029.6mb 59f 56f
10:50 4.5ft 9s 5s 13 16 mph 1029.9mb 59f 55f
9:50 4.5ft 8s 5s 16 18 mph 1030.2mb 59f 56f
8:50 5ft 8s 5s 16 18 mph 1030.4mb 58f 56f
7:50 5ft 9s 6s 16 18 mph 1030.4mb 59f 56f
6:50 4.5ft 9s 5s 18 20 mph 1030.6mb 59f 56f
5:50 5ft 9s 5s 16 18 mph 1031.1mb 59f 56f
4:50 4.5ft 9s 5s 16 18 mph 1031mb 59f 55f
3:50 4.5ft 6s 5s 16 20 mph 1031.4mb 59f 55f
2:50 4.5ft 10s 5s 16 18 mph 1032.2mb 59f 55f
1:50 4.5ft 5s 5s 16 20 mph 1032.4mb 59f 55f
12:50 4.5ft 9s 5s 18 20 mph 1032.7mb 59f 55f
11:50 4.5ft 10s 5s 16 20 mph 1033.2mb 59f 55f
10:50 5ft 9s 5s 16 20 mph 1033.3mb 58f 54f
9:50 5ft 9s 5s 16 20 mph 1033.4mb 58f 53f
8:50 5ft 8s 6s 18 20 mph 1033.1mb 58f 53f
7:50 5.5ft 8s 6s 16 18 mph 1033.2mb 58f 53f
6:50 5ft 8s 6s 16 18 mph 1032.9mb 58f 53f
5:50 5ft 9s 6s 16 18 mph 1033mb 59f 54f
4:50 4.5ft 9s 6s 13 16 mph 1033.3mb 59f 55f
3:50 4.5ft 9s 5s 16 18 mph 1032.9mb 59f 55f
2:50 4.5ft 9s 6s 16 18 mph 1033.2mb 59f 55f
1:50 4ft 9s 6s 13 16 mph 1033.5mb 59f 55f
12:50 4ft 10s 5s 13 16 mph 1033.6mb 59f 56f
jue 09/29 11:50 4ft 9s 5s 16 18 mph 1033.6mb 59f 57f
10:50 4.5ft 9s 6s 16 18 mph 1033.6mb 60f 58f
9:50 4.5ft 9s 6s 13 18 mph 1033.5mb 60f 58f
8:50 5ft 9s 6s 9 11 mph 1033.5mb 60f 59f
7:50 4.5ft 10s 6s 9
mph
1033.1mb 59f 58f
6:50 5ft 9s 6s 9 11 mph 1033.1mb 59f 58f
5:50 4.5ft 9s 6s 11
mph
1033.2mb 59f 58f
4:50 5ft 8s 6s 9 11 mph 1032.9mb 59f 58f
3:50 4.5ft 8s 6s 7 9 mph 1033.1mb 59f 58f
2:50 4.5ft 10s 6s 4 7 mph 1033.1mb 59f 58f
1:50 4.5ft 8s 5s 11
mph
1033.2mb 59f 57f
12:50 5ft 8s 5s 16 18 mph 1033.1mb 59f 56f
11:50 4.5ft 6s 5s 18 20 mph 1032.9mb 59f 55f
10:50 5ft 8s 5s 20 22 mph 1032.9mb 59f 54f
9:50 5ft 7s 5s 18 22 mph 1032.8mb 59f 52f
8:50 5.5ft 8s 5s 22 27 mph 1032.1mb 59f 51f
7:50 5ft 8s 5s 22 27 mph 1031.6mb 59f 51f
6:50 5ft 7s 5s 20 25 mph 1031.2mb 59f 51f
5:50 5ft 7s 5s 20 25 mph 1030.6mb 59f 52f
4:50 5ft 8s 5s 20 22 mph 1029.9mb 59f 53f
3:50 5ft 7s 5s 20 22 mph 1029.6mb 59f 54f
2:50 4.5ft 7s 5s 22 27 mph 1029mb 60f 55f
1:50 5ft 6s 5s 22 27 mph 1029.1mb 60f 56f
12:50 5.5ft 7s 5s 18 22 mph 1029.1mb 60f 57f
mié 09/28 11:50 6ft 6s 5s 16 20 mph 1029.2mb 60f 57f
10:50 5ft 6s 5s 22 27 mph 1028.7mb 60f 58f
9:50 5ft 5s 5s 22 25 mph 1028.3mb 60f 58f
8:50 5ft 7s 5s 22 29 mph 1027.5mb 60f 58f
7:50 4.5ft 7s 5s 20 25 mph 1026.9mb 60f 58f
6:50 4ft 5s 5s 20 22 mph 1026.5mb 60f 57f
5:50 4ft 7s 5s 18 22 mph 1026mb 60f 58f
4:50 4ft 6s 5s 13 18 mph 1025.8mb 60f 59f
3:50 4.5ft 7s 5s 9 11 mph 1025.9mb 60f 57f
2:50 4.5ft 6s 5s 11 13 mph 1025.7mb 60f 56f
1:50 4.5ft 6s 5s 16 18 mph 1025.7mb 60f 55f
12:50 4.5ft 6s 5s 18 20 mph 1025.4mb 60f 54f
11:50 4.5ft 6s 5s 18 22 mph 1025.3mb 60f 53f
10:50 4.5ft 6s 5s 16 22 mph 1025.3mb 60f 53f
9:50 4ft 5s 4s 18 22 mph 1025.1mb 60f 54f
8:50 4ft 5s 4s 18 20 mph 1024mb 60f 54f
7:50 4ft 5s 4s 18 22 mph 1023.1mb 60f 55f
6:50 4ft 5s 5s 18 22 mph 1022.2mb 59f 56f
5:50 4ft 5s 4s 16 20 mph 1021.7mb 59f 57f
4:50 4.5ft 5s 5s 18 22 mph 1020.7mb 59f 57f
3:50 3.5ft 4s 4s 18 20 mph 1020.2mb 59f 58f
2:50 3.5ft 8s 4s 16 20 mph 1019.7mb 59f 57f
1:50 3ft 8s 4s 18 22 mph 1019.2mb 60f 58f
12:50 2.5ft 6s 5s 18 20 mph 1018.3mb 60f 59f
mar 09/27 11:50 2.5ft 6s 5s 13 16 mph 1017.7mb 60f 59f
10:50 2.5ft 6s 5s 11 13 mph 1016.9mb 60f 60f
9:50 2.5ft 6s 5s 11 16 mph 1015.9mb 60f 60f
8:50 2.5ft 6s 5s 11 13 mph 1015.2mb 61f 60f
7:50 2.5ft 6s 5s 11 13 mph 1014.1mb 61f 61f
6:50 2.5ft 6s 5s 9
mph
1013.3mb 62f 62f
5:50 2ft 6s 5s 4
mph
1013.1mb 61f 62f
4:50 2ft 5s 5s 4
mph
1013mb 61f 62f
3:50 2.5ft 6s 5s 2
mph
1012.1mb 61f 62f
2:50 2.5ft 6s 5s 2
mph
1011.9mb 61f 61f
1:50 2.5ft 5s 5s  -  mph 1011.8mb 60f 62f
12:50 2.5ft 6s 5s 2
mph
1011.9mb 60f 59f